sensor_id;sensor_type;location;lat;lon;timestamp;P1;durP1;ratioP1;P2;durP2;ratioP2
18661;SDS011;61528;49.456;11.098;2023-05-07T00:00:03;4.20;;;2.97;;
18661;SDS011;61528;49.456;11.098;2023-05-07T00:02:32;3.43;;;3.10;;
18661;SDS011;61528;49.456;11.098;2023-05-07T00:04:58;3.57;;;3.00;;
18661;SDS011;61528;49.456;11.098;2023-05-07T00:07:24;4.17;;;2.80;;
18661;SDS011;61528;49.456;11.098;2023-05-07T00:09:51;3.40;;;3.10;;
18661;SDS011;61528;49.456;11.098;2023-05-07T00:12:17;3.73;;;2.93;;
18661;SDS011;61528;49.456;11.098;2023-05-07T00:14:43;3.13;;;2.67;;
18661;SDS011;61528;49.456;11.098;2023-05-07T00:17:10;3.37;;;2.80;;
18661;SDS011;61528;49.456;11.098;2023-05-07T00:19:36;3.03;;;2.67;;
18661;SDS011;61528;49.456;11.098;2023-05-07T00:22:02;3.50;;;2.80;;
18661;SDS011;61528;49.456;11.098;2023-05-07T00:24:29;2.63;;;2.43;;
18661;SDS011;61528;49.456;11.098;2023-05-07T00:26:55;2.90;;;2.60;;
18661;SDS011;61528;49.456;11.098;2023-05-07T00:29:23;2.93;;;2.60;;
18661;SDS011;61528;49.456;11.098;2023-05-07T00:31:49;4.43;;;2.90;;
18661;SDS011;61528;49.456;11.098;2023-05-07T00:34:16;2.87;;;2.53;;
18661;SDS011;61528;49.456;11.098;2023-05-07T00:36:42;3.60;;;2.60;;
18661;SDS011;61528;49.456;11.098;2023-05-07T00:39:08;3.80;;;2.70;;
18661;SDS011;61528;49.456;11.098;2023-05-07T00:41:34;2.50;;;2.30;;
18661;SDS011;61528;49.456;11.098;2023-05-07T00:44:00;2.80;;;2.57;;
18661;SDS011;61528;49.456;11.098;2023-05-07T00:46:27;2.70;;;2.50;;
18661;SDS011;61528;49.456;11.098;2023-05-07T00:48:54;3.47;;;2.43;;
18661;SDS011;61528;49.456;11.098;2023-05-07T00:51:20;2.80;;;2.60;;
18661;SDS011;61528;49.456;11.098;2023-05-07T00:53:46;3.00;;;2.17;;
18661;SDS011;61528;49.456;11.098;2023-05-07T00:56:13;2.30;;;2.10;;
18661;SDS011;61528;49.456;11.098;2023-05-07T00:58:40;3.50;;;2.40;;
18661;SDS011;61528;49.456;11.098;2023-05-07T01:01:06;2.53;;;2.33;;
18661;SDS011;61528;49.456;11.098;2023-05-07T01:03:32;2.70;;;2.50;;
18661;SDS011;61528;49.456;11.098;2023-05-07T01:05:58;4.23;;;2.67;;
18661;SDS011;61528;49.456;11.098;2023-05-07T01:08:25;2.60;;;2.40;;
18661;SDS011;61528;49.456;11.098;2023-05-07T01:10:53;2.50;;;2.30;;
18661;SDS011;61528;49.456;11.098;2023-05-07T01:13:20;3.70;;;2.90;;
18661;SDS011;61528;49.456;11.098;2023-05-07T01:15:46;2.73;;;2.30;;
18661;SDS011;61528;49.456;11.098;2023-05-07T01:18:12;2.77;;;2.20;;
18661;SDS011;61528;49.456;11.098;2023-05-07T01:20:39;3.83;;;2.63;;
18661;SDS011;61528;49.456;11.098;2023-05-07T01:23:06;2.90;;;2.50;;
18661;SDS011;61528;49.456;11.098;2023-05-07T01:25:32;2.43;;;2.23;;
18661;SDS011;61528;49.456;11.098;2023-05-07T01:27:59;2.80;;;2.50;;
18661;SDS011;61528;49.456;11.098;2023-05-07T01:30:26;2.40;;;2.20;;
18661;SDS011;61528;49.456;11.098;2023-05-07T01:32:56;2.60;;;2.40;;
18661;SDS011;61528;49.456;11.098;2023-05-07T01:35:28;2.87;;;2.57;;
18661;SDS011;61528;49.456;11.098;2023-05-07T01:37:55;2.87;;;2.50;;
18661;SDS011;61528;49.456;11.098;2023-05-07T01:40:22;4.17;;;2.03;;
18661;SDS011;61528;49.456;11.098;2023-05-07T01:42:49;2.53;;;2.33;;
18661;SDS011;61528;49.456;11.098;2023-05-07T01:45:15;2.60;;;2.40;;
18661;SDS011;61528;49.456;11.098;2023-05-07T01:47:41;3.63;;;2.40;;
18661;SDS011;61528;49.456;11.098;2023-05-07T01:50:08;3.00;;;2.70;;
18661;SDS011;61528;49.456;11.098;2023-05-07T01:52:36;2.90;;;2.40;;
18661;SDS011;61528;49.456;11.098;2023-05-07T01:55:02;2.70;;;2.50;;
18661;SDS011;61528;49.456;11.098;2023-05-07T01:57:28;3.47;;;2.80;;
18661;SDS011;61528;49.456;11.098;2023-05-07T01:59:54;2.73;;;2.53;;
18661;SDS011;61528;49.456;11.098;2023-05-07T02:02:20;3.47;;;2.90;;
18661;SDS011;61528;49.456;11.098;2023-05-07T02:04:48;2.80;;;2.43;;
18661;SDS011;61528;49.456;11.098;2023-05-07T02:07:14;4.20;;;3.13;;
18661;SDS011;61528;49.456;11.098;2023-05-07T02:15:48;3.10;;;2.80;;
18661;SDS011;61528;49.456;11.098;2023-05-07T02:18:15;3.47;;;2.97;;
18661;SDS011;61528;49.456;11.098;2023-05-07T02:20:42;3.17;;;2.97;;
18661;SDS011;61528;49.456;11.098;2023-05-07T02:23:08;3.27;;;2.87;;
18661;SDS011;61528;49.456;11.098;2023-05-07T02:25:34;3.70;;;3.40;;
18661;SDS011;61528;49.456;11.098;2023-05-07T02:28:00;3.33;;;3.00;;
18661;SDS011;61528;49.456;11.098;2023-05-07T02:30:26;3.93;;;3.40;;
18661;SDS011;61528;49.456;11.098;2023-05-07T02:32:53;3.37;;;3.07;;
18661;SDS011;61528;49.456;11.098;2023-05-07T02:35:19;3.10;;;2.90;;
18661;SDS011;61528;49.456;11.098;2023-05-07T02:37:45;3.13;;;2.93;;
18661;SDS011;61528;49.456;11.098;2023-05-07T02:40:11;3.40;;;3.10;;
18661;SDS011;61528;49.456;11.098;2023-05-07T02:42:37;3.90;;;2.93;;
18661;SDS011;61528;49.456;11.098;2023-05-07T02:45:04;3.33;;;3.00;;
18661;SDS011;61528;49.456;11.098;2023-05-07T02:47:30;3.57;;;3.37;;
18661;SDS011;61528;49.456;11.098;2023-05-07T02:49:57;3.53;;;3.23;;
18661;SDS011;61528;49.456;11.098;2023-05-07T02:52:23;5.07;;;4.03;;
18661;SDS011;61528;49.456;11.098;2023-05-07T02:54:49;4.17;;;3.77;;
18661;SDS011;61528;49.456;11.098;2023-05-07T02:57:15;3.93;;;3.63;;
18661;SDS011;61528;49.456;11.098;2023-05-07T02:59:42;4.87;;;3.90;;
18661;SDS011;61528;49.456;11.098;2023-05-07T03:02:08;5.20;;;4.37;;
18661;SDS011;61528;49.456;11.098;2023-05-07T03:04:35;5.20;;;4.50;;
18661;SDS011;61528;49.456;11.098;2023-05-07T03:07:01;5.37;;;4.37;;
18661;SDS011;61528;49.456;11.098;2023-05-07T03:09:27;4.67;;;4.27;;
18661;SDS011;61528;49.456;11.098;2023-05-07T03:11:53;5.20;;;4.20;;
18661;SDS011;61528;49.456;11.098;2023-05-07T03:14:19;4.60;;;4.20;;
18661;SDS011;61528;49.456;11.098;2023-05-07T03:16:46;6.67;;;4.70;;
18661;SDS011;61528;49.456;11.098;2023-05-07T03:19:12;4.93;;;4.53;;
18661;SDS011;61528;49.456;11.098;2023-05-07T03:21:38;4.63;;;4.23;;
18661;SDS011;61528;49.456;11.098;2023-05-07T03:24:05;6.50;;;4.57;;
18661;SDS011;61528;49.456;11.098;2023-05-07T03:26:31;4.93;;;4.40;;
18661;SDS011;61528;49.456;11.098;2023-05-07T03:28:57;4.53;;;4.23;;
18661;SDS011;61528;49.456;11.098;2023-05-07T03:31:24;5.77;;;4.87;;
18661;SDS011;61528;49.456;11.098;2023-05-07T03:33:51;6.00;;;4.77;;
18661;SDS011;61528;49.456;11.098;2023-05-07T03:36:17;4.80;;;4.30;;
18661;SDS011;61528;49.456;11.098;2023-05-07T03:38:43;5.33;;;4.83;;
18661;SDS011;61528;49.456;11.098;2023-05-07T03:41:09;4.60;;;4.20;;
18661;SDS011;61528;49.456;11.098;2023-05-07T03:43:36;5.73;;;4.43;;
18661;SDS011;61528;49.456;11.098;2023-05-07T03:46:02;4.80;;;4.37;;
18661;SDS011;61528;49.456;11.098;2023-05-07T03:48:28;5.17;;;4.77;;
18661;SDS011;61528;49.456;11.098;2023-05-07T03:50:55;4.90;;;4.47;;
18661;SDS011;61528;49.456;11.098;2023-05-07T03:53:21;5.00;;;4.50;;
18661;SDS011;61528;49.456;11.098;2023-05-07T03:55:47;6.23;;;4.87;;
18661;SDS011;61528;49.456;11.098;2023-05-07T03:58:14;5.50;;;5.00;;
18661;SDS011;61528;49.456;11.098;2023-05-07T04:00:40;5.13;;;4.27;;
18661;SDS011;61528;49.456;11.098;2023-05-07T04:03:07;7.43;;;4.63;;
18661;SDS011;61528;49.456;11.098;2023-05-07T04:05:33;7.40;;;4.70;;
18661;SDS011;61528;49.456;11.098;2023-05-07T04:07:59;4.87;;;4.47;;
18661;SDS011;61528;49.456;11.098;2023-05-07T04:10:28;4.90;;;4.40;;
18661;SDS011;61528;49.456;11.098;2023-05-07T04:12:55;5.40;;;4.87;;
18661;SDS011;61528;49.456;11.098;2023-05-07T04:15:22;5.50;;;5.00;;
18661;SDS011;61528;49.456;11.098;2023-05-07T04:17:48;7.23;;;5.07;;
18661;SDS011;61528;49.456;11.098;2023-05-07T04:20:15;5.30;;;4.77;;
18661;SDS011;61528;49.456;11.098;2023-05-07T04:22:42;5.83;;;5.30;;
18661;SDS011;61528;49.456;11.098;2023-05-07T04:25:09;6.00;;;5.40;;
18661;SDS011;61528;49.456;11.098;2023-05-07T04:27:35;5.70;;;5.20;;
18661;SDS011;61528;49.456;11.098;2023-05-07T04:30:02;6.40;;;5.60;;
18661;SDS011;61528;49.456;11.098;2023-05-07T04:32:29;6.23;;;5.63;;
18661;SDS011;61528;49.456;11.098;2023-05-07T04:34:56;5.57;;;5.07;;
18661;SDS011;61528;49.456;11.098;2023-05-07T04:37:22;6.40;;;5.80;;
18661;SDS011;61528;49.456;11.098;2023-05-07T04:39:48;6.20;;;5.70;;
18661;SDS011;61528;49.456;11.098;2023-05-07T04:42:15;6.10;;;5.60;;
18661;SDS011;61528;49.456;11.098;2023-05-07T04:44:41;6.57;;;5.97;;
18661;SDS011;61528;49.456;11.098;2023-05-07T04:47:07;6.57;;;5.87;;
18661;SDS011;61528;49.456;11.098;2023-05-07T04:49:33;8.37;;;5.97;;
18661;SDS011;61528;49.456;11.098;2023-05-07T04:52:00;6.97;;;6.27;;
18661;SDS011;61528;49.456;11.098;2023-05-07T04:54:26;7.13;;;6.40;;
18661;SDS011;61528;49.456;11.098;2023-05-07T04:56:52;7.57;;;6.63;;
18661;SDS011;61528;49.456;11.098;2023-05-07T04:59:18;6.43;;;5.93;;
18661;SDS011;61528;49.456;11.098;2023-05-07T05:01:45;7.80;;;7.00;;
18661;SDS011;61528;49.456;11.098;2023-05-07T05:04:11;7.13;;;6.53;;
18661;SDS011;61528;49.456;11.098;2023-05-07T05:06:38;6.73;;;6.13;;
18661;SDS011;61528;49.456;11.098;2023-05-07T05:09:04;7.70;;;6.63;;
18661;SDS011;61528;49.456;11.098;2023-05-07T05:11:31;7.83;;;7.03;;
18661;SDS011;61528;49.456;11.098;2023-05-07T05:13:58;6.57;;;5.97;;
18661;SDS011;61528;49.456;11.098;2023-05-07T05:16:25;7.67;;;6.70;;
18661;SDS011;61528;49.456;11.098;2023-05-07T05:18:51;7.00;;;6.30;;
18661;SDS011;61528;49.456;11.098;2023-05-07T05:21:19;7.03;;;6.43;;
18661;SDS011;61528;49.456;11.098;2023-05-07T05:23:45;7.27;;;6.67;;
18661;SDS011;61528;49.456;11.098;2023-05-07T05:26:12;7.90;;;7.10;;
18661;SDS011;61528;49.456;11.098;2023-05-07T05:28:38;7.57;;;6.77;;
18661;SDS011;61528;49.456;11.098;2023-05-07T05:31:04;7.97;;;7.10;;
18661;SDS011;61528;49.456;11.098;2023-05-07T05:33:30;8.73;;;7.80;;
18661;SDS011;61528;49.456;11.098;2023-05-07T05:35:56;9.57;;;7.40;;
18661;SDS011;61528;49.456;11.098;2023-05-07T05:38:23;8.77;;;7.17;;
18661;SDS011;61528;49.456;11.098;2023-05-07T05:40:49;8.70;;;6.97;;
18661;SDS011;61528;49.456;11.098;2023-05-07T05:43:15;7.87;;;7.07;;
18661;SDS011;61528;49.456;11.098;2023-05-07T05:45:41;7.63;;;6.93;;
18661;SDS011;61528;49.456;11.098;2023-05-07T05:48:07;7.77;;;7.07;;
18661;SDS011;61528;49.456;11.098;2023-05-07T05:50:33;8.63;;;7.40;;
18661;SDS011;61528;49.456;11.098;2023-05-07T05:53:03;8.53;;;7.47;;
18661;SDS011;61528;49.456;11.098;2023-05-07T05:55:29;8.07;;;7.27;;
18661;SDS011;61528;49.456;11.098;2023-05-07T05:57:57;10.17;;;7.27;;
18661;SDS011;61528;49.456;11.098;2023-05-07T06:00:23;8.67;;;7.57;;
18661;SDS011;61528;49.456;11.098;2023-05-07T06:02:49;8.63;;;6.93;;
18661;SDS011;61528;49.456;11.098;2023-05-07T06:05:15;8.50;;;7.67;;
18661;SDS011;61528;49.456;11.098;2023-05-07T06:07:42;8.07;;;7.17;;
18661;SDS011;61528;49.456;11.098;2023-05-07T06:10:08;9.13;;;7.37;;
18661;SDS011;61528;49.456;11.098;2023-05-07T06:12:34;8.17;;;7.40;;
18661;SDS011;61528;49.456;11.098;2023-05-07T06:15:00;7.83;;;7.07;;
18661;SDS011;61528;49.456;11.098;2023-05-07T06:17:26;8.60;;;7.70;;
18661;SDS011;61528;49.456;11.098;2023-05-07T06:19:52;7.77;;;7.07;;
18661;SDS011;61528;49.456;11.098;2023-05-07T06:22:19;8.60;;;7.27;;
18661;SDS011;61528;49.456;11.098;2023-05-07T06:24:45;8.07;;;7.30;;
18661;SDS011;61528;49.456;11.098;2023-05-07T06:27:11;8.60;;;7.37;;
18661;SDS011;61528;49.456;11.098;2023-05-07T06:29:37;8.20;;;7.40;;
18661;SDS011;61528;49.456;11.098;2023-05-07T06:32:10;8.20;;;7.40;;
18661;SDS011;61528;49.456;11.098;2023-05-07T06:34:37;7.63;;;6.93;;
18661;SDS011;61528;49.456;11.098;2023-05-07T06:37:03;9.43;;;7.03;;
18661;SDS011;61528;49.456;11.098;2023-05-07T06:39:29;7.87;;;7.07;;
18661;SDS011;61528;49.456;11.098;2023-05-07T06:41:56;7.53;;;6.73;;
18661;SDS011;61528;49.456;11.098;2023-05-07T06:47:26;8.17;;;7.37;;
18661;SDS011;61528;49.456;11.098;2023-05-07T06:49:53;8.03;;;7.23;;
18661;SDS011;61528;49.456;11.098;2023-05-07T06:52:20;8.63;;;7.10;;
18661;SDS011;61528;49.456;11.098;2023-05-07T06:54:46;7.50;;;6.70;;
18661;SDS011;61528;49.456;11.098;2023-05-07T06:57:12;7.73;;;7.03;;
18661;SDS011;61528;49.456;11.098;2023-05-07T06:59:38;8.07;;;7.27;;
18661;SDS011;61528;49.456;11.098;2023-05-07T07:02:05;9.47;;;7.00;;
18661;SDS011;61528;49.456;11.098;2023-05-07T07:04:31;7.60;;;6.80;;
18661;SDS011;61528;49.456;11.098;2023-05-07T07:06:58;9.03;;;6.80;;
18661;SDS011;61528;49.456;11.098;2023-05-07T07:09:24;7.00;;;6.30;;
18661;SDS011;61528;49.456;11.098;2023-05-07T07:11:50;6.87;;;6.27;;
18661;SDS011;61528;49.456;11.098;2023-05-07T07:14:16;7.40;;;6.80;;
18661;SDS011;61528;49.456;11.098;2023-05-07T07:16:42;8.30;;;7.10;;
18661;SDS011;61528;49.456;11.098;2023-05-07T07:19:08;7.47;;;6.60;;
18661;SDS011;61528;49.456;11.098;2023-05-07T07:21:35;6.83;;;6.13;;
18661;SDS011;61528;49.456;11.098;2023-05-07T07:24:01;8.53;;;6.60;;
18661;SDS011;61528;49.456;11.098;2023-05-07T07:26:27;7.70;;;6.70;;
18661;SDS011;61528;49.456;11.098;2023-05-07T07:28:53;7.70;;;6.43;;
18661;SDS011;61528;49.456;11.098;2023-05-07T07:31:20;7.27;;;6.20;;
18661;SDS011;61528;49.456;11.098;2023-05-07T07:33:46;7.50;;;6.80;;
18661;SDS011;61528;49.456;11.098;2023-05-07T07:36:12;7.40;;;6.70;;
18661;SDS011;61528;49.456;11.098;2023-05-07T07:38:41;9.93;;;6.80;;
18661;SDS011;61528;49.456;11.098;2023-05-07T07:41:10;7.97;;;6.73;;
18661;SDS011;61528;49.456;11.098;2023-05-07T07:43:36;7.07;;;6.43;;
18661;SDS011;61528;49.456;11.098;2023-05-07T07:46:02;7.27;;;6.37;;
18661;SDS011;61528;49.456;11.098;2023-05-07T07:48:30;7.13;;;6.43;;
18661;SDS011;61528;49.456;11.098;2023-05-07T07:50:56;7.00;;;6.40;;
18661;SDS011;61528;49.456;11.098;2023-05-07T07:53:22;6.53;;;5.93;;
18661;SDS011;61528;49.456;11.098;2023-05-07T07:55:48;7.03;;;6.30;;
18661;SDS011;61528;49.456;11.098;2023-05-07T07:58:15;6.70;;;6.10;;
18661;SDS011;61528;49.456;11.098;2023-05-07T08:00:41;7.23;;;5.93;;
18661;SDS011;61528;49.456;11.098;2023-05-07T08:03:10;8.33;;;6.50;;
18661;SDS011;61528;49.456;11.098;2023-05-07T08:05:36;6.90;;;6.20;;
18661;SDS011;61528;49.456;11.098;2023-05-07T08:08:04;7.47;;;6.20;;
18661;SDS011;61528;49.456;11.098;2023-05-07T08:10:32;7.07;;;6.37;;
18661;SDS011;61528;49.456;11.098;2023-05-07T08:12:59;6.80;;;6.20;;
18661;SDS011;61528;49.456;11.098;2023-05-07T08:15:27;6.57;;;5.97;;
18661;SDS011;61528;49.456;11.098;2023-05-07T08:17:53;7.37;;;5.50;;
18661;SDS011;61528;49.456;11.098;2023-05-07T08:20:21;6.23;;;5.73;;
18661;SDS011;61528;49.456;11.098;2023-05-07T08:22:47;6.77;;;6.10;;
18661;SDS011;61528;49.456;11.098;2023-05-07T08:25:13;6.87;;;6.17;;
18661;SDS011;61528;49.456;11.098;2023-05-07T08:27:39;6.63;;;6.00;;
18661;SDS011;61528;49.456;11.098;2023-05-07T08:30:05;6.60;;;6.00;;
18661;SDS011;61528;49.456;11.098;2023-05-07T08:32:32;6.40;;;5.87;;
18661;SDS011;61528;49.456;11.098;2023-05-07T08:34:58;7.23;;;6.53;;
18661;SDS011;61528;49.456;11.098;2023-05-07T08:37:24;7.07;;;5.90;;
18661;SDS011;61528;49.456;11.098;2023-05-07T08:39:50;7.00;;;6.40;;
18661;SDS011;61528;49.456;11.098;2023-05-07T08:42:17;6.30;;;5.70;;
18661;SDS011;61528;49.456;11.098;2023-05-07T08:44:44;6.37;;;5.73;;
18661;SDS011;61528;49.456;11.098;2023-05-07T08:47:12;6.17;;;5.67;;
18661;SDS011;61528;49.456;11.098;2023-05-07T08:49:39;6.30;;;5.70;;
18661;SDS011;61528;49.456;11.098;2023-05-07T08:52:05;6.57;;;5.67;;
18661;SDS011;61528;49.456;11.098;2023-05-07T08:54:31;6.67;;;6.00;;
18661;SDS011;61528;49.456;11.098;2023-05-07T08:56:58;6.87;;;6.20;;
18661;SDS011;61528;49.456;11.098;2023-05-07T08:59:24;6.60;;;5.87;;
18661;SDS011;61528;49.456;11.098;2023-05-07T09:01:50;6.13;;;5.53;;
18661;SDS011;61528;49.456;11.098;2023-05-07T09:04:17;6.13;;;5.60;;
18661;SDS011;61528;49.456;11.098;2023-05-07T09:06:43;5.37;;;4.97;;
18661;SDS011;61528;49.456;11.098;2023-05-07T09:09:09;5.87;;;5.37;;
18661;SDS011;61528;49.456;11.098;2023-05-07T09:11:40;5.83;;;5.23;;
18661;SDS011;61528;49.456;11.098;2023-05-07T09:14:06;7.00;;;5.60;;
18661;SDS011;61528;49.456;11.098;2023-05-07T09:16:32;5.87;;;5.33;;
18661;SDS011;61528;49.456;11.098;2023-05-07T09:18:59;8.70;;;5.70;;
18661;SDS011;61528;49.456;11.098;2023-05-07T09:21:26;6.27;;;5.70;;
18661;SDS011;61528;49.456;11.098;2023-05-07T09:23:53;6.00;;;5.50;;
18661;SDS011;61528;49.456;11.098;2023-05-07T09:26:22;6.00;;;5.50;;
18661;SDS011;61528;49.456;11.098;2023-05-07T09:28:49;5.90;;;5.40;;
18661;SDS011;61528;49.456;11.098;2023-05-07T09:31:15;5.20;;;4.73;;
18661;SDS011;61528;49.456;11.098;2023-05-07T09:33:41;8.17;;;5.33;;
18661;SDS011;61528;49.456;11.098;2023-05-07T09:36:08;5.47;;;5.07;;
18661;SDS011;61528;49.456;11.098;2023-05-07T09:38:35;6.23;;;5.63;;
18661;SDS011;61528;49.456;11.098;2023-05-07T09:41:03;5.87;;;5.33;;
18661;SDS011;61528;49.456;11.098;2023-05-07T09:43:36;6.00;;;5.30;;
18661;SDS011;61528;49.456;11.098;2023-05-07T09:46:12;6.33;;;5.57;;
18661;SDS011;61528;49.456;11.098;2023-05-07T09:48:39;6.20;;;5.60;;
18661;SDS011;61528;49.456;11.098;2023-05-07T09:53:44;5.20;;;4.70;;
18661;SDS011;61528;49.456;11.098;2023-05-07T09:56:12;7.03;;;5.50;;
18661;SDS011;61528;49.456;11.098;2023-05-07T09:58:40;5.40;;;4.90;;
18661;SDS011;61528;49.456;11.098;2023-05-07T10:01:07;5.27;;;4.87;;
18661;SDS011;61528;49.456;11.098;2023-05-07T10:03:33;5.90;;;5.40;;
18661;SDS011;61528;49.456;11.098;2023-05-07T10:06:01;5.33;;;4.83;;
18661;SDS011;61528;49.456;11.098;2023-05-07T10:08:28;5.27;;;4.77;;
18661;SDS011;61528;49.456;11.098;2023-05-07T10:10:55;6.07;;;5.10;;
18661;SDS011;61528;49.456;11.098;2023-05-07T10:13:21;5.93;;;4.70;;
18661;SDS011;61528;49.456;11.098;2023-05-07T10:15:48;5.17;;;4.77;;
18661;SDS011;61528;49.456;11.098;2023-05-07T10:18:15;5.80;;;5.20;;
18661;SDS011;61528;49.456;11.098;2023-05-07T10:20:41;5.10;;;4.60;;
18661;SDS011;61528;49.456;11.098;2023-05-07T10:23:08;5.20;;;4.70;;
18661;SDS011;61528;49.456;11.098;2023-05-07T10:25:38;4.93;;;4.47;;
18661;SDS011;61528;49.456;11.098;2023-05-07T10:28:06;5.20;;;4.70;;
18661;SDS011;61528;49.456;11.098;2023-05-07T10:33:03;5.13;;;4.63;;
18661;SDS011;61528;49.456;11.098;2023-05-07T10:35:32;4.83;;;4.13;;
18661;SDS011;61528;49.456;11.098;2023-05-07T10:38:02;4.90;;;3.93;;
18661;SDS011;61528;49.456;11.098;2023-05-07T10:40:29;4.10;;;3.80;;
18661;SDS011;61528;49.456;11.098;2023-05-07T10:42:56;4.40;;;4.00;;
18661;SDS011;61528;49.456;11.098;2023-05-07T10:45:24;6.17;;;4.10;;
18661;SDS011;61528;49.456;11.098;2023-05-07T10:50:36;5.33;;;4.23;;
18661;SDS011;61528;49.456;11.098;2023-05-07T10:55:46;4.43;;;4.07;;
18661;SDS011;61528;49.456;11.098;2023-05-07T11:00:48;4.07;;;3.77;;
18661;SDS011;61528;49.456;11.098;2023-05-07T11:03:14;4.20;;;3.77;;
18661;SDS011;61528;49.456;11.098;2023-05-07T11:05:41;4.80;;;4.13;;
18661;SDS011;61528;49.456;11.098;2023-05-07T11:08:08;4.30;;;4.00;;
18661;SDS011;61528;49.456;11.098;2023-05-07T11:10:53;6.43;;;3.77;;
18661;SDS011;61528;49.456;11.098;2023-05-07T11:16:13;4.07;;;3.77;;
18661;SDS011;61528;49.456;11.098;2023-05-07T11:19:00;3.40;;;3.10;;
18661;SDS011;61528;49.456;11.098;2023-05-07T11:24:03;5.23;;;3.60;;
18661;SDS011;61528;49.456;11.098;2023-05-07T11:26:30;4.97;;;3.33;;
18661;SDS011;61528;49.456;11.098;2023-05-07T11:28:57;4.83;;;3.80;;
18661;SDS011;61528;49.456;11.098;2023-05-07T11:31:26;4.23;;;3.70;;
18661;SDS011;61528;49.456;11.098;2023-05-07T11:42:01;3.70;;;3.40;;
18661;SDS011;61528;49.456;11.098;2023-05-07T11:44:43;3.60;;;3.30;;
18661;SDS011;61528;49.456;11.098;2023-05-07T11:47:11;3.67;;;3.20;;
18661;SDS011;61528;49.456;11.098;2023-05-07T11:49:37;3.67;;;3.00;;
18661;SDS011;61528;49.456;11.098;2023-05-07T11:52:05;3.30;;;3.00;;
18661;SDS011;61528;49.456;11.098;2023-05-07T11:54:35;3.17;;;2.97;;
18661;SDS011;61528;49.456;11.098;2023-05-07T11:57:02;3.17;;;2.70;;
18661;SDS011;61528;49.456;11.098;2023-05-07T11:59:28;2.93;;;2.60;;
18661;SDS011;61528;49.456;11.098;2023-05-07T12:01:57;3.00;;;2.80;;
18661;SDS011;61528;49.456;11.098;2023-05-07T12:04:28;3.20;;;2.90;;
18661;SDS011;61528;49.456;11.098;2023-05-07T12:06:55;2.80;;;2.60;;
18661;SDS011;61528;49.456;11.098;2023-05-07T12:09:22;3.73;;;3.10;;
18661;SDS011;61528;49.456;11.098;2023-05-07T12:11:48;3.40;;;3.10;;
18661;SDS011;61528;49.456;11.098;2023-05-07T12:14:14;3.00;;;2.80;;
18661;SDS011;61528;49.456;11.098;2023-05-07T12:16:41;3.03;;;2.83;;
18661;SDS011;61528;49.456;11.098;2023-05-07T12:19:08;3.07;;;2.87;;
18661;SDS011;61528;49.456;11.098;2023-05-07T12:21:37;3.13;;;2.83;;
18661;SDS011;61528;49.456;11.098;2023-05-07T12:24:04;3.20;;;2.90;;
18661;SDS011;61528;49.456;11.098;2023-05-07T12:26:30;3.60;;;3.27;;
18661;SDS011;61528;49.456;11.098;2023-05-07T12:28:57;6.63;;;3.70;;
18661;SDS011;61528;49.456;11.098;2023-05-07T12:31:26;3.87;;;3.60;;
18661;SDS011;61528;49.456;11.098;2023-05-07T12:33:52;3.67;;;3.37;;
18661;SDS011;61528;49.456;11.098;2023-05-07T12:36:19;3.87;;;3.40;;
18661;SDS011;61528;49.456;11.098;2023-05-07T12:38:46;3.23;;;3.03;;
18661;SDS011;61528;49.456;11.098;2023-05-07T12:41:15;3.40;;;3.10;;
18661;SDS011;61528;49.456;11.098;2023-05-07T12:43:44;3.70;;;3.40;;
18661;SDS011;61528;49.456;11.098;2023-05-07T12:46:11;4.13;;;3.73;;
18661;SDS011;61528;49.456;11.098;2023-05-07T12:48:44;3.40;;;3.10;;
18661;SDS011;61528;49.456;11.098;2023-05-07T12:51:13;4.60;;;3.27;;
18661;SDS011;61528;49.456;11.098;2023-05-07T12:53:40;4.47;;;3.17;;
18661;SDS011;61528;49.456;11.098;2023-05-07T12:56:10;3.20;;;3.00;;
18661;SDS011;61528;49.456;11.098;2023-05-07T12:58:36;3.93;;;3.53;;
18661;SDS011;61528;49.456;11.098;2023-05-07T13:01:06;4.80;;;3.77;;
18661;SDS011;61528;49.456;11.098;2023-05-07T13:03:35;3.50;;;3.20;;
18661;SDS011;61528;49.456;11.098;2023-05-07T13:06:05;3.60;;;3.30;;
18661;SDS011;61528;49.456;11.098;2023-05-07T13:08:36;3.13;;;2.93;;
18661;SDS011;61528;49.456;11.098;2023-05-07T13:11:06;3.80;;;3.40;;
18661;SDS011;61528;49.456;11.098;2023-05-07T13:13:34;3.77;;;3.40;;
18661;SDS011;61528;49.456;11.098;2023-05-07T13:16:01;3.20;;;2.90;;
18661;SDS011;61528;49.456;11.098;2023-05-07T13:18:29;3.30;;;3.10;;
18661;SDS011;61528;49.456;11.098;2023-05-07T13:20:56;4.60;;;3.60;;
18661;SDS011;61528;49.456;11.098;2023-05-07T13:23:22;3.57;;;3.07;;
18661;SDS011;61528;49.456;11.098;2023-05-07T13:25:49;3.60;;;3.30;;
18661;SDS011;61528;49.456;11.098;2023-05-07T13:28:15;3.60;;;3.30;;
18661;SDS011;61528;49.456;11.098;2023-05-07T13:30:42;4.13;;;3.40;;
18661;SDS011;61528;49.456;11.098;2023-05-07T13:33:12;3.80;;;3.50;;
18661;SDS011;61528;49.456;11.098;2023-05-07T13:35:38;4.43;;;2.90;;
18661;SDS011;61528;49.456;11.098;2023-05-07T13:38:04;3.40;;;3.20;;
18661;SDS011;61528;49.456;11.098;2023-05-07T13:40:31;3.20;;;2.93;;
18661;SDS011;61528;49.456;11.098;2023-05-07T13:42:57;3.77;;;3.47;;
18661;SDS011;61528;49.456;11.098;2023-05-07T13:45:25;4.10;;;3.20;;
18661;SDS011;61528;49.456;11.098;2023-05-07T13:47:54;3.37;;;3.07;;
18661;SDS011;61528;49.456;11.098;2023-05-07T13:50:21;3.67;;;3.30;;
18661;SDS011;61528;49.456;11.098;2023-05-07T13:52:47;3.53;;;3.23;;
18661;SDS011;61528;49.456;11.098;2023-05-07T13:55:20;3.20;;;3.00;;
18661;SDS011;61528;49.456;11.098;2023-05-07T13:57:47;3.53;;;3.23;;
18661;SDS011;61528;49.456;11.098;2023-05-07T14:00:14;3.57;;;3.27;;
18661;SDS011;61528;49.456;11.098;2023-05-07T14:02:41;3.40;;;3.13;;
18661;SDS011;61528;49.456;11.098;2023-05-07T14:05:07;3.50;;;3.20;;
18661;SDS011;61528;49.456;11.098;2023-05-07T14:07:34;3.97;;;3.60;;
18661;SDS011;61528;49.456;11.098;2023-05-07T14:10:01;3.27;;;2.97;;
18661;SDS011;61528;49.456;11.098;2023-05-07T14:12:27;3.53;;;3.23;;
18661;SDS011;61528;49.456;11.098;2023-05-07T14:14:54;3.40;;;3.10;;
18661;SDS011;61528;49.456;11.098;2023-05-07T14:17:21;3.50;;;3.20;;
18661;SDS011;61528;49.456;11.098;2023-05-07T14:19:50;3.20;;;2.90;;
18661;SDS011;61528;49.456;11.098;2023-05-07T14:22:16;3.50;;;3.30;;
18661;SDS011;61528;49.456;11.098;2023-05-07T14:24:42;3.17;;;2.97;;
18661;SDS011;61528;49.456;11.098;2023-05-07T14:27:08;4.03;;;3.00;;
18661;SDS011;61528;49.456;11.098;2023-05-07T14:29:35;3.47;;;3.27;;
18661;SDS011;61528;49.456;11.098;2023-05-07T14:32:02;3.37;;;3.00;;
18661;SDS011;61528;49.456;11.098;2023-05-07T14:34:28;3.30;;;3.10;;
18661;SDS011;61528;49.456;11.098;2023-05-07T14:36:55;3.53;;;3.20;;
18661;SDS011;61528;49.456;11.098;2023-05-07T14:39:22;4.10;;;3.30;;
18661;SDS011;61528;49.456;11.098;2023-05-07T14:41:48;3.83;;;3.53;;
18661;SDS011;61528;49.456;11.098;2023-05-07T14:44:14;3.83;;;3.53;;
18661;SDS011;61528;49.456;11.098;2023-05-07T14:46:40;3.73;;;3.43;;
18661;SDS011;61528;49.456;11.098;2023-05-07T14:49:07;5.27;;;4.43;;
18661;SDS011;61528;49.456;11.098;2023-05-07T14:51:41;5.77;;;4.50;;
18661;SDS011;61528;49.456;11.098;2023-05-07T14:54:08;4.03;;;3.73;;
18661;SDS011;61528;49.456;11.098;2023-05-07T14:56:34;4.30;;;3.97;;
18661;SDS011;61528;49.456;11.098;2023-05-07T14:59:01;4.60;;;4.10;;
18661;SDS011;61528;49.456;11.098;2023-05-07T15:01:28;4.37;;;4.07;;
18661;SDS011;61528;49.456;11.098;2023-05-07T15:03:54;4.60;;;4.20;;
18661;SDS011;61528;49.456;11.098;2023-05-07T15:06:21;6.63;;;4.40;;